sensor_id;sensor_type;location;lat;lon;timestamp;pressure;altitude;pressure_sealevel;temperature;humidity
71057;BME280;58380;48.312;9.246;2023-07-30T07:20:51;93465.03;;;16.97;100.00
71057;BME280;58380;48.312;9.246;2023-07-30T07:23:16;93473.88;;;17.20;100.00
71057;BME280;58380;48.312;9.246;2023-07-30T07:25:43;93465.00;;;17.33;100.00
71057;BME280;58380;48.312;9.246;2023-07-30T07:28:09;93466.41;;;17.53;100.00
71057;BME280;58380;48.312;9.246;2023-07-30T07:30:35;93465.22;;;17.68;100.00
71057;BME280;58380;48.312;9.246;2023-07-30T07:33:04;93476.06;;;17.94;100.00
71057;BME280;58380;48.312;9.246;2023-07-30T07:35:31;93457.72;;;18.01;100.00
71057;BME280;58380;48.312;9.246;2023-07-30T07:37:57;93474.22;;;18.35;100.00
71057;BME280;58380;48.312;9.246;2023-07-30T07:40:22;93448.63;;;18.51;98.33
71057;BME280;58380;48.312;9.246;2023-07-30T07:42:48;93455.38;;;18.48;89.88
71057;BME280;58380;48.312;9.246;2023-07-30T07:45:13;93477.03;;;18.38;86.52
71057;BME280;58380;48.312;9.246;2023-07-30T07:47:39;93488.94;;;18.23;86.56
71057;BME280;58380;48.312;9.246;2023-07-30T07:50:05;93470.31;;;18.09;88.54
71057;BME280;58380;48.312;9.246;2023-07-30T07:52:31;93466.25;;;18.12;89.45
71057;BME280;58380;48.312;9.246;2023-07-30T07:54:56;93471.50;;;18.26;85.45
71057;BME280;58380;48.312;9.246;2023-07-30T07:57:22;93460.25;;;18.06;82.74
71057;BME280;58380;48.312;9.246;2023-07-30T07:59:47;93472.59;;;18.25;84.09
71057;BME280;58380;48.312;9.246;2023-07-30T08:02:13;93476.56;;;18.36;86.14
71057;BME280;58380;48.312;9.246;2023-07-30T08:04:38;93478.72;;;18.25;81.96
71057;BME280;58380;48.312;9.246;2023-07-30T08:07:04;93484.44;;;18.41;84.05
71057;BME280;58380;48.312;9.246;2023-07-30T08:09:30;93467.19;;;18.56;83.11
71057;BME280;58380;48.312;9.246;2023-07-30T08:11:56;93464.41;;;18.79;72.78
71057;BME280;58380;48.312;9.246;2023-07-30T08:14:22;93482.22;;;19.09;77.03
71057;BME280;58380;48.312;9.246;2023-07-30T08:16:47;93480.50;;;19.13;76.34
71057;BME280;58380;48.312;9.246;2023-07-30T08:19:12;93466.78;;;19.06;74.32
71057;BME280;58380;48.312;9.246;2023-07-30T08:21:38;93487.41;;;19.14;76.91
71057;BME280;58380;48.312;9.246;2023-07-30T08:24:04;93481.91;;;19.02;76.41
71057;BME280;58380;48.312;9.246;2023-07-30T08:26:29;93492.44;;;18.99;75.79
71057;BME280;58380;48.312;9.246;2023-07-30T08:28:55;93436.41;;;18.76;74.31
71057;BME280;58380;48.312;9.246;2023-07-30T08:31:20;93464.25;;;18.84;74.57
71057;BME280;58380;48.312;9.246;2023-07-30T08:33:46;93470.88;;;18.86;75.32
71057;BME280;58380;48.312;9.246;2023-07-30T08:36:11;93483.00;;;18.92;76.09
71057;BME280;58380;48.312;9.246;2023-07-30T08:38:37;93468.69;;;18.88;78.73
71057;BME280;58380;48.312;9.246;2023-07-30T08:41:02;93477.16;;;18.82;79.15
71057;BME280;58380;48.312;9.246;2023-07-30T08:43:28;93485.66;;;18.84;81.09
71057;BME280;58380;48.312;9.246;2023-07-30T08:45:54;93482.81;;;18.89;79.62
71057;BME280;58380;48.312;9.246;2023-07-30T08:48:19;93457.28;;;18.65;81.47
71057;BME280;58380;48.312;9.246;2023-07-30T08:50:45;93487.69;;;18.78;79.47
71057;BME280;58380;48.312;9.246;2023-07-30T08:53:13;93487.22;;;18.76;79.02
71057;BME280;58380;48.312;9.246;2023-07-30T08:55:40;93486.13;;;18.86;78.41
71057;BME280;58380;48.312;9.246;2023-07-30T08:58:07;93479.41;;;18.97;79.14
71057;BME280;58380;48.312;9.246;2023-07-30T09:00:36;93468.84;;;19.18;79.83
71057;BME280;58380;48.312;9.246;2023-07-30T09:03:04;93467.28;;;19.26;79.78
71057;BME280;58380;48.312;9.246;2023-07-30T09:05:31;93475.78;;;19.45;75.84
71057;BME280;58380;48.312;9.246;2023-07-30T09:07:57;93468.22;;;19.47;73.83
71057;BME280;58380;48.312;9.246;2023-07-30T09:10:23;93475.75;;;19.54;75.59
71057;BME280;58380;48.312;9.246;2023-07-30T09:12:55;93472.72;;;19.81;75.54
71057;BME280;58380;48.312;9.246;2023-07-30T09:15:34;93474.50;;;19.69;72.63
71057;BME280;58380;48.312;9.246;2023-07-30T09:18:06;93480.50;;;19.39;73.58
71057;BME280;58380;48.312;9.246;2023-07-30T09:20:40;93477.69;;;19.27;74.74
71057;BME280;58380;48.312;9.246;2023-07-30T09:23:08;93489.16;;;19.19;76.24
71057;BME280;58380;48.312;9.246;2023-07-30T09:25:35;93490.56;;;19.25;76.78
71057;BME280;58380;48.312;9.246;2023-07-30T09:28:02;93481.94;;;19.37;77.19
71057;BME280;58380;48.312;9.246;2023-07-30T09:30:28;93487.25;;;19.54;75.78
71057;BME280;58380;48.312;9.246;2023-07-30T09:32:55;93493.25;;;19.43;74.60
71057;BME280;58380;48.312;9.246;2023-07-30T09:35:22;93501.91;;;19.57;77.77
71057;BME280;58380;48.312;9.246;2023-07-30T09:37:58;93499.22;;;19.66;78.96
71057;BME280;58380;48.312;9.246;2023-07-30T09:40:36;93508.03;;;19.66;76.50
71057;BME280;58380;48.312;9.246;2023-07-30T09:43:05;93496.88;;;19.38;80.06
71057;BME280;58380;48.312;9.246;2023-07-30T09:45:35;93511.34;;;19.11;81.46
71057;BME280;58380;48.312;9.246;2023-07-30T09:48:04;93522.81;;;19.03;85.11
71057;BME280;58380;48.312;9.246;2023-07-30T09:50:33;93524.53;;;18.90;84.35
71057;BME280;58380;48.312;9.246;2023-07-30T09:53:01;93504.78;;;18.60;83.53
71057;BME280;58380;48.312;9.246;2023-07-30T09:55:27;93519.00;;;18.78;82.06
71057;BME280;58380;48.312;9.246;2023-07-30T09:57:52;93527.09;;;18.64;82.05
71057;BME280;58380;48.312;9.246;2023-07-30T10:00:18;93540.41;;;18.78;81.71
71057;BME280;58380;48.312;9.246;2023-07-30T10:02:47;93536.88;;;18.68;81.16
71057;BME280;58380;48.312;9.246;2023-07-30T10:05:18;93530.13;;;18.31;81.57
71057;BME280;58380;48.312;9.246;2023-07-30T10:07:53;93528.84;;;18.20;80.39
71057;BME280;58380;48.312;9.246;2023-07-30T10:10:29;93523.31;;;17.85;81.23
71057;BME280;58380;48.312;9.246;2023-07-30T10:13:00;93537.59;;;17.66;82.11
71057;BME280;58380;48.312;9.246;2023-07-30T10:15:28;93533.78;;;17.36;82.83
71057;BME280;58380;48.312;9.246;2023-07-30T10:17:56;93559.84;;;17.39;84.88
71057;BME280;58380;48.312;9.246;2023-07-30T10:20:27;93576.28;;;17.33;84.58
71057;BME280;58380;48.312;9.246;2023-07-30T10:22:57;93577.31;;;17.09;85.78
71057;BME280;58380;48.312;9.246;2023-07-30T10:25:43;93569.94;;;16.78;86.73
71057;BME280;58380;48.312;9.246;2023-07-30T10:28:26;93579.50;;;16.52;88.32
71057;BME280;58380;48.312;9.246;2023-07-30T10:31:05;93591.34;;;16.46;92.91
71057;BME280;58380;48.312;9.246;2023-07-30T10:33:50;93612.34;;;16.33;94.80
71057;BME280;58380;48.312;9.246;2023-07-30T10:36:42;93595.03;;;16.17;95.70
71057;BME280;58380;48.312;9.246;2023-07-30T10:39:19;93605.31;;;16.24;96.84
71057;BME280;58380;48.312;9.246;2023-07-30T10:41:50;93609.97;;;16.32;96.02
71057;BME280;58380;48.312;9.246;2023-07-30T10:44:33;93591.94;;;16.43;93.39
71057;BME280;58380;48.312;9.246;2023-07-30T10:47:00;93595.47;;;16.52;93.36
71057;BME280;58380;48.312;9.246;2023-07-30T10:49:28;93592.63;;;16.62;91.49
71057;BME280;58380;48.312;9.246;2023-07-30T10:51:55;93618.44;;;16.80;90.28
71057;BME280;58380;48.312;9.246;2023-07-30T10:54:22;93610.63;;;16.98;87.83
71057;BME280;58380;48.312;9.246;2023-07-30T10:56:48;93622.56;;;16.87;87.11
71057;BME280;58380;48.312;9.246;2023-07-30T10:59:14;93572.09;;;16.49;87.42
71057;BME280;58380;48.312;9.246;2023-07-30T11:01:44;93581.16;;;16.61;86.73
71057;BME280;58380;48.312;9.246;2023-07-30T11:06:38;93572.69;;;16.73;82.70
71057;BME280;58380;48.312;9.246;2023-07-30T11:09:04;93591.75;;;16.94;85.22
71057;BME280;58380;48.312;9.246;2023-07-30T11:11:31;93582.06;;;16.98;82.53
71057;BME280;58380;48.312;9.246;2023-07-30T11:13:57;93591.03;;;17.30;82.75
71057;BME280;58380;48.312;9.246;2023-07-30T11:16:24;93574.31;;;17.24;82.43
71057;BME280;58380;48.312;9.246;2023-07-30T11:18:49;93546.78;;;17.15;81.39
71057;BME280;58380;48.312;9.246;2023-07-30T11:21:17;93584.75;;;17.71;80.04
71057;BME280;58380;48.312;9.246;2023-07-30T11:23:44;93577.38;;;17.91;76.79
71057;BME280;58380;48.312;9.246;2023-07-30T11:26:18;93575.84;;;17.98;76.14
71057;BME280;58380;48.312;9.246;2023-07-30T11:28:44;93570.47;;;18.21;76.46
71057;BME280;58380;48.312;9.246;2023-07-30T11:31:12;93591.69;;;18.48;77.19
71057;BME280;58380;48.312;9.246;2023-07-30T11:33:43;93561.09;;;18.32;71.24
71057;BME280;58380;48.312;9.246;2023-07-30T11:36:12;93581.00;;;18.48;73.78
71057;BME280;58380;48.312;9.246;2023-07-30T11:38:41;93576.25;;;18.77;75.55
71057;BME280;58380;48.312;9.246;2023-07-30T11:41:09;93560.38;;;18.80;69.96
71057;BME280;58380;48.312;9.246;2023-07-30T11:43:38;93550.25;;;18.68;71.09
71057;BME280;58380;48.312;9.246;2023-07-30T11:46:10;93549.69;;;18.80;72.14
71057;BME280;58380;48.312;9.246;2023-07-30T11:48:39;93566.34;;;18.77;71.65
71057;BME280;58380;48.312;9.246;2023-07-30T11:51:05;93571.91;;;18.98;71.77
71057;BME280;58380;48.312;9.246;2023-07-30T11:56:25;93575.69;;;19.06;69.61
71057;BME280;58380;48.312;9.246;2023-07-30T11:58:57;93555.09;;;19.15;67.84
71057;BME280;58380;48.312;9.246;2023-07-30T12:01:26;93573.38;;;19.39;69.86
71057;BME280;58380;48.312;9.246;2023-07-30T12:03:55;93587.44;;;19.62;68.82
71057;BME280;58380;48.312;9.246;2023-07-30T12:06:22;93551.19;;;19.47;71.84
71057;BME280;58380;48.312;9.246;2023-07-30T12:08:50;93561.31;;;19.68;65.84
71057;BME280;58380;48.312;9.246;2023-07-30T12:11:17;93553.56;;;19.83;67.40
71057;BME280;58380;48.312;9.246;2023-07-30T12:13:46;93564.28;;;19.92;65.80
71057;BME280;58380;48.312;9.246;2023-07-30T12:16:12;93585.25;;;19.73;67.39
71057;BME280;58380;48.312;9.246;2023-07-30T12:18:39;93511.81;;;19.22;67.63
71057;BME280;58380;48.312;9.246;2023-07-30T12:21:06;93565.69;;;19.55;66.29
71057;BME280;58380;48.312;9.246;2023-07-30T12:23:33;93571.97;;;19.42;65.98
71057;BME280;58380;48.312;9.246;2023-07-30T12:26:00;93563.94;;;19.42;63.69
71057;BME280;58380;48.312;9.246;2023-07-30T12:28:26;93569.13;;;19.47;63.81
71057;BME280;58380;48.312;9.246;2023-07-30T12:30:51;93569.94;;;19.47;62.70
71057;BME280;58380;48.312;9.246;2023-07-30T12:33:17;93560.66;;;19.45;62.07
71057;BME280;58380;48.312;9.246;2023-07-30T12:35:42;93585.88;;;19.70;63.70
71057;BME280;58380;48.312;9.246;2023-07-30T12:38:08;93556.88;;;19.72;62.15
71057;BME280;58380;48.312;9.246;2023-07-30T12:40:33;93579.69;;;19.87;63.63
71057;BME280;58380;48.312;9.246;2023-07-30T12:43:02;93594.50;;;20.10;67.79
71057;BME280;58380;48.312;9.246;2023-07-30T12:45:29;93575.38;;;20.29;59.93
71057;BME280;58380;48.312;9.246;2023-07-30T12:47:55;93582.75;;;20.50;61.99
71057;BME280;58380;48.312;9.246;2023-07-30T12:50:20;93563.16;;;20.49;60.63
71057;BME280;58380;48.312;9.246;2023-07-30T12:52:46;93592.13;;;20.82;60.99
71057;BME280;58380;48.312;9.246;2023-07-30T12:55:11;93566.88;;;20.74;55.88
71057;BME280;58380;48.312;9.246;2023-07-30T12:57:36;93561.53;;;21.04;55.08
71057;BME280;58380;48.312;9.246;2023-07-30T13:00:02;93577.31;;;21.05;56.16
71057;BME280;58380;48.312;9.246;2023-07-30T13:02:30;93548.53;;;20.55;57.77
71057;BME280;58380;48.312;9.246;2023-07-30T13:04:58;93576.44;;;20.45;61.15
71057;BME280;58380;48.312;9.246;2023-07-30T13:07:24;93562.44;;;20.31;59.41
71057;BME280;58380;48.312;9.246;2023-07-30T13:10:02;93570.81;;;20.30;60.39
71057;BME280;58380;48.312;9.246;2023-07-30T13:12:31;93564.50;;;20.25;63.72
71057;BME280;58380;48.312;9.246;2023-07-30T13:14:58;93572.50;;;20.43;59.58
71057;BME280;58380;48.312;9.246;2023-07-30T13:17:23;93574.41;;;20.34;59.66
71057;BME280;58380;48.312;9.246;2023-07-30T13:19:49;93552.69;;;20.26;59.29
71057;BME280;58380;48.312;9.246;2023-07-30T13:22:14;93585.00;;;20.21;61.26
71057;BME280;58380;48.312;9.246;2023-07-30T13:24:40;93592.63;;;20.02;63.77
71057;BME280;58380;48.312;9.246;2023-07-30T13:27:05;93598.16;;;19.88;63.52
71057;BME280;58380;48.312;9.246;2023-07-30T13:29:31;93604.78;;;19.82;63.95
71057;BME280;58380;48.312;9.246;2023-07-30T13:31:56;93564.75;;;19.42;64.40
71057;BME280;58380;48.312;9.246;2023-07-30T13:34:22;93614.06;;;19.76;67.98
71057;BME280;58380;48.312;9.246;2023-07-30T13:36:47;93600.00;;;19.61;64.82
71057;BME280;58380;48.312;9.246;2023-07-30T13:39:13;93595.13;;;19.46;63.16
71057;BME280;58380;48.312;9.246;2023-07-30T13:41:39;93569.28;;;19.42;63.74
71057;BME280;58380;48.312;9.246;2023-07-30T13:44:04;93591.81;;;19.49;63.52
71057;BME280;58380;48.312;9.246;2023-07-30T13:46:30;93566.25;;;19.08;64.13
71057;BME280;58380;48.312;9.246;2023-07-30T13:48:55;93582.34;;;19.26;65.38
71057;BME280;58380;48.312;9.246;2023-07-30T13:51:20;93588.03;;;19.42;63.25
71057;BME280;58380;48.312;9.246;2023-07-30T13:53:46;93571.81;;;19.64;63.32
71057;BME280;58380;48.312;9.246;2023-07-30T13:56:11;93598.75;;;20.11;67.88
71057;BME280;58380;48.312;9.246;2023-07-30T13:58:36;93587.94;;;20.46;59.94
71057;BME280;58380;48.312;9.246;2023-07-30T14:01:04;93579.00;;;20.33;61.49
71057;BME280;58380;48.312;9.246;2023-07-30T14:03:30;93592.28;;;20.21;60.43
71057;BME280;58380;48.312;9.246;2023-07-30T14:05:55;93583.34;;;19.99;62.23
71057;BME280;58380;48.312;9.246;2023-07-30T14:08:20;93569.44;;;19.54;63.67
71057;BME280;58380;48.312;9.246;2023-07-30T14:10:46;93603.66;;;19.74;64.06
71057;BME280;58380;48.312;9.246;2023-07-30T14:13:11;93590.25;;;19.39;63.47
71057;BME280;58380;48.312;9.246;2023-07-30T14:15:37;93616.56;;;19.55;65.79
71057;BME280;58380;48.312;9.246;2023-07-30T14:18:03;93620.66;;;19.52;66.07
71057;BME280;58380;48.312;9.246;2023-07-30T14:20:29;93619.22;;;19.55;64.81
71057;BME280;58380;48.312;9.246;2023-07-30T14:22:54;93631.34;;;19.52;66.99
71057;BME280;58380;48.312;9.246;2023-07-30T14:25:20;93631.34;;;19.44;66.57
71057;BME280;58380;48.312;9.246;2023-07-30T14:27:45;93638.09;;;19.32;65.53
71057;BME280;58380;48.312;9.246;2023-07-30T14:30:11;93629.22;;;19.14;66.25
71057;BME280;58380;48.312;9.246;2023-07-30T14:32:36;93634.16;;;19.30;67.87
71057;BME280;58380;48.312;9.246;2023-07-30T14:35:02;93626.91;;;19.30;66.37
71057;BME280;58380;48.312;9.246;2023-07-30T14:37:27;93631.94;;;19.32;66.55
71057;BME280;58380;48.312;9.246;2023-07-30T14:39:53;93658.25;;;19.30;66.90
71057;BME280;58380;48.312;9.246;2023-07-30T14:42:21;93622.69;;;18.89;68.58
71057;BME280;58380;48.312;9.246;2023-07-30T14:44:46;93577.56;;;18.57;68.27
71057;BME280;58380;48.312;9.246;2023-07-30T14:47:12;93649.72;;;18.79;69.24
71057;BME280;58380;48.312;9.246;2023-07-30T14:49:38;93657.34;;;18.72;69.96
71057;BME280;58380;48.312;9.246;2023-07-30T14:52:04;93646.63;;;18.63;70.22
71057;BME280;58380;48.312;9.246;2023-07-30T14:54:29;93585.47;;;18.30;71.37
71057;BME280;58380;48.312;9.246;2023-07-30T14:56:55;93632.34;;;18.68;75.02
71057;BME280;58380;48.312;9.246;2023-07-30T14:59:20;93660.47;;;18.88;71.13
71057;BME280;58380;48.312;9.246;2023-07-30T15:01:46;93638.97;;;18.70;74.53
71057;BME280;58380;48.312;9.246;2023-07-30T15:04:11;93675.94;;;19.00;70.99
71057;BME280;58380;48.312;9.246;2023-07-30T15:06:36;93679.19;;;18.88;71.67
71057;BME280;58380;48.312;9.246;2023-07-30T15:09:02;93649.44;;;18.58;72.50
71057;BME280;58380;48.312;9.246;2023-07-30T15:11:27;93670.44;;;18.73;70.29
71057;BME280;58380;48.312;9.246;2023-07-30T15:13:53;93667.97;;;18.54;70.82
71057;BME280;58380;48.312;9.246;2023-07-30T15:16:18;93661.59;;;18.42;71.79
71057;BME280;58380;48.312;9.246;2023-07-30T15:18:44;93684.63;;;18.51;71.84
71057;BME280;58380;48.312;9.246;2023-07-30T15:21:13;93683.19;;;18.45;71.90
71057;BME280;58380;48.312;9.246;2023-07-30T15:23:39;93678.38;;;18.33;72.28
71057;BME280;58380;48.312;9.246;2023-07-30T15:26:04;93688.03;;;18.43;73.01
71057;BME280;58380;48.312;9.246;2023-07-30T15:28:29;93663.75;;;18.31;70.66
71057;BME280;58380;48.312;9.246;2023-07-30T15:30:55;93657.78;;;18.34;70.86
71057;BME280;58380;48.312;9.246;2023-07-30T15:33:22;93669.88;;;18.31;72.09
71057;BME280;58380;48.312;9.246;2023-07-30T15:35:48;93676.38;;;18.39;71.44
71057;BME280;58380;48.312;9.246;2023-07-30T15:38:13;93687.53;;;18.41;72.69
71057;BME280;58380;48.312;9.246;2023-07-30T15:40:39;93686.94;;;18.44;72.09
71057;BME280;58380;48.312;9.246;2023-07-30T15:43:05;93658.41;;;18.31;71.48
71057;BME280;58380;48.312;9.246;2023-07-30T15:45:31;93681.13;;;18.42;71.31
71057;BME280;58380;48.312;9.246;2023-07-30T15:47:57;93687.13;;;18.48;71.15
71057;BME280;58380;48.312;9.246;2023-07-30T15:50:23;93691.31;;;18.40;70.52
71057;BME280;58380;48.312;9.246;2023-07-30T15:52:51;93655.31;;;18.15;70.54
71057;BME280;58380;48.312;9.246;2023-07-30T15:55:17;93661.69;;;18.28;72.16
71057;BME280;58380;48.312;9.246;2023-07-30T15:57:42;93667.84;;;18.60;71.63
71057;BME280;58380;48.312;9.246;2023-07-30T16:00:09;93666.78;;;18.69;69.74
71057;BME280;58380;48.312;9.246;2023-07-30T16:02:35;93632.44;;;18.54;69.40
71057;BME280;58380;48.312;9.246;2023-07-30T16:05:01;93672.44;;;18.90;68.60
71057;BME280;58380;48.312;9.246;2023-07-30T16:07:26;93663.19;;;19.05;69.41
71057;BME280;58380;48.312;9.246;2023-07-30T16:09:51;93662.09;;;19.06;66.36
71057;BME280;58380;48.312;9.246;2023-07-30T16:12:17;93678.56;;;18.91;66.28
71057;BME280;58380;48.312;9.246;2023-07-30T16:14:43;93677.31;;;18.66;67.10
71057;BME280;58380;48.312;9.246;2023-07-30T16:17:09;93676.03;;;18.63;65.61
71057;BME280;58380;48.312;9.246;2023-07-30T16:19:35;93665.13;;;18.51;66.01
71057;BME280;58380;48.312;9.246;2023-07-30T16:22:01;93679.59;;;18.50;66.85
71057;BME280;58380;48.312;9.246;2023-07-30T16:24:26;93664.34;;;18.28;68.49
71057;BME280;58380;48.312;9.246;2023-07-30T16:26:51;93673.31;;;18.32;67.07
71057;BME280;58380;48.312;9.246;2023-07-30T16:29:17;93671.59;;;18.27;67.88
71057;BME280;58380;48.312;9.246;2023-07-30T16:31:42;93652.81;;;17.96;66.29
71057;BME280;58380;48.312;9.246;2023-07-30T16:34:08;93693.06;;;18.00;66.83
71057;BME280;58380;48.312;9.246;2023-07-30T16:36:33;93691.88;;;17.92;67.28
71057;BME280;58380;48.312;9.246;2023-07-30T16:38:59;93684.94;;;18.05;65.62
71057;BME280;58380;48.312;9.246;2023-07-30T16:41:24;93690.81;;;17.79;65.48
71057;BME280;58380;48.312;9.246;2023-07-30T16:43:50;93707.44;;;17.90;66.34
71057;BME280;58380;48.312;9.246;2023-07-30T16:46:15;93690.25;;;17.82;66.77
71057;BME280;58380;48.312;9.246;2023-07-30T16:48:40;93681.22;;;17.78;66.09
71057;BME280;58380;48.312;9.246;2023-07-30T16:51:06;93691.03;;;17.69;65.92
71057;BME280;58380;48.312;9.246;2023-07-30T16:53:31;93699.09;;;17.55;64.90
71057;BME280;58380;48.312;9.246;2023-07-30T16:55:57;93699.09;;;17.41;67.55
71057;BME280;58380;48.312;9.246;2023-07-30T16:58:22;93718.16;;;17.49;67.42
71057;BME280;58380;48.312;9.246;2023-07-30T17:00:48;93698.41;;;17.36;67.59
71057;BME280;58380;48.312;9.246;2023-07-30T17:03:14;93706.13;;;17.37;65.35
71057;BME280;58380;48.312;9.246;2023-07-30T17:05:39;93715.53;;;17.35;66.01
71057;BME280;58380;48.312;9.246;2023-07-30T17:08:04;93727.25;;;17.34;65.73
71057;BME280;58380;48.312;9.246;2023-07-30T17:10:35;93735.38;;;17.29;66.99
71057;BME280;58380;48.312;9.246;2023-07-30T17:13:01;93727.84;;;17.17;66.77
71057;BME280;58380;48.312;9.246;2023-07-30T17:15:27;93692.78;;;16.96;66.44
71057;BME280;58380;48.312;9.246;2023-07-30T17:17:52;93681.13;;;16.92;66.80
71057;BME280;58380;48.312;9.246;2023-07-30T17:20:18;93719.66;;;17.13;66.97
71057;BME280;58380;48.312;9.246;2023-07-30T17:22:43;93709.88;;;17.09;66.66
71057;BME280;58380;48.312;9.246;2023-07-30T17:25:09;93721.53;;;17.13;68.36
71057;BME280;58380;48.312;9.246;2023-07-30T17:27:34;93713.63;;;17.08;68.42
71057;BME280;58380;48.312;9.246;2023-07-30T17:30:00;93705.91;;;17.06;69.87
71057;BME280;58380;48.312;9.246;2023-07-30T17:32:25;93710.56;;;17.00;69.32
71057;BME280;58380;48.312;9.246;2023-07-30T17:34:51;93680.38;;;16.72;68.73
71057;BME280;58380;48.312;9.246;2023-07-30T17:37:17;93726.44;;;16.92;69.12
71057;BME280;58380;48.312;9.246;2023-07-30T17:39:42;93700.13;;;16.71;70.32
71057;BME280;58380;48.312;9.246;2023-07-30T17:42:08;93723.69;;;16.83;69.07
71057;BME280;58380;48.312;9.246;2023-07-30T17:44:33;93731.28;;;16.90;68.67
71057;BME280;58380;48.312;9.246;2023-07-30T17:46:59;93723.53;;;16.74;69.34
71057;BME280;58380;48.312;9.246;2023-07-30T17:49:25;93733.84;;;16.81;69.78
71057;BME280;58380;48.312;9.246;2023-07-30T17:51:52;93701.19;;;16.56;67.11
71057;BME280;58380;48.312;9.246;2023-07-30T17:54:17;93703.84;;;16.56;67.86
71057;BME280;58380;48.312;9.246;2023-07-30T17:56:43;93726.75;;;16.57;67.98
71057;BME280;58380;48.312;9.246;2023-07-30T17:59:09;93708.84;;;16.44;66.76
71057;BME280;58380;48.312;9.246;2023-07-30T18:01:35;93741.56;;;16.64;67.34
71057;BME280;58380;48.312;9.246;2023-07-30T18:04:01;93732.47;;;16.51;68.82
71057;BME280;58380;48.312;9.246;2023-07-30T18:06:27;93697.91;;;16.13;66.91
71057;BME280;58380;48.312;9.246;2023-07-30T18:08:52;93740.31;;;16.42;69.25
71057;BME280;58380;48.312;9.246;2023-07-30T18:11:17;93741.94;;;16.24;67.44
71057;BME280;58380;48.312;9.246;2023-07-30T18:13:43;93755.09;;;16.34;69.22
71057;BME280;58380;48.312;9.246;2023-07-30T18:16:08;93760.22;;;16.31;70.25
71057;BME280;58380;48.312;9.246;2023-07-30T18:18:34;93752.97;;;16.17;67.93
71057;BME280;58380;48.312;9.246;2023-07-30T18:20:59;93734.97;;;16.09;67.41
71057;BME280;58380;48.312;9.246;2023-07-30T18:23:25;93683.63;;;15.71;69.23
71057;BME280;58380;48.312;9.246;2023-07-30T18:25:51;93749.13;;;16.05;67.16
71057;BME280;58380;48.312;9.246;2023-07-30T18:28:17;93746.84;;;15.98;68.22
71057;BME280;58380;48.312;9.246;2023-07-30T18:30:43;93763.03;;;16.02;72.52
71057;BME280;58380;48.312;9.246;2023-07-30T18:33:08;93759.41;;;15.92;74.89
71057;BME280;58380;48.312;9.246;2023-07-30T18:35:34;93761.75;;;15.80;75.89
71057;BME280;58380;48.312;9.246;2023-07-30T18:37:59;93780.19;;;15.71;76.85
71057;BME280;58380;48.312;9.246;2023-07-30T18:40:25;93778.16;;;15.63;79.78
71057;BME280;58380;48.312;9.246;2023-07-30T18:42:51;93712.44;;;15.21;87.00
71057;BME280;58380;48.312;9.246;2023-07-30T18:45:16;93781.16;;;15.57;83.14
71057;BME280;58380;48.312;9.246;2023-07-30T18:47:42;93788.34;;;15.56;85.19
71057;BME280;58380;48.312;9.246;2023-07-30T18:50:07;93762.72;;;15.41;87.34
71057;BME280;58380;48.312;9.246;2023-07-30T18:52:33;93773.56;;;15.45;85.10
71057;BME280;58380;48.312;9.246;2023-07-30T18:54:59;93771.88;;;15.30;83.66
71057;BME280;58380;48.312;9.246;2023-07-30T18:57:25;93777.56;;;15.23;91.13
71057;BME280;58380;48.312;9.246;2023-07-30T18:59:50;93776.56;;;15.14;94.14
71057;BME280;58380;48.312;9.246;2023-07-30T19:02:16;93766.31;;;15.02;91.88
71057;BME280;58380;48.312;9.246;2023-07-30T19:04:41;93768.63;;;14.85;87.29
71057;BME280;58380;48.312;9.246;2023-07-30T19:07:07;93766.72;;;14.61;87.23
71057;BME280;58380;48.312;9.246;2023-07-30T19:09:32;93753.03;;;14.44;88.69
71057;BME280;58380;48.312;9.246;2023-07-30T19:11:58;93758.41;;;14.34;88.85
71057;BME280;58380;48.312;9.246;2023-07-30T19:14:23;93770.91;;;14.33;91.74
71057;BME280;58380;48.312;9.246;2023-07-30T19:16:49;93774.09;;;14.30;91.15
71057;BME280;58380;48.312;9.246;2023-07-30T19:19:14;93763.53;;;14.20;91.05
71057;BME280;58380;48.312;9.246;2023-07-30T19:21:40;93789.53;;;14.28;92.69
71057;BME280;58380;48.312;9.246;2023-07-30T19:24:05;93775.06;;;14.05;92.01
71057;BME280;58380;48.312;9.246;2023-07-30T19:26:31;93787.34;;;13.96;91.25
71057;BME280;58380;48.312;9.246;2023-07-30T19:28:56;93795.03;;;13.92;93.25
71057;BME280;58380;48.312;9.246;2023-07-30T19:31:22;93783.69;;;13.81;92.77
71057;BME280;58380;48.312;9.246;2023-07-30T19:33:48;93803.28;;;13.91;95.63
71057;BME280;58380;48.312;9.246;2023-07-30T19:36:13;93792.75;;;13.70;93.40
71057;BME280;58380;48.312;9.246;2023-07-30T19:38:39;93808.63;;;13.86;97.85
71057;BME280;58380;48.312;9.246;2023-07-30T19:41:08;93787.47;;;13.65;95.92
71057;BME280;58380;48.312;9.246;2023-07-30T19:43:34;93792.84;;;13.55;95.43
71057;BME280;58380;48.312;9.246;2023-07-30T19:46:00;93785.44;;;13.52;97.24
71057;BME280;58380;48.312;9.246;2023-07-30T19:48:27;93794.97;;;13.58;98.51
71057;BME280;58380;48.312;9.246;2023-07-30T19:50:52;93806.06;;;13.60;100.00
71057;BME280;58380;48.312;9.246;2023-07-30T19:53:19;93800.53;;;13.56;100.00
71057;BME280;58380;48.312;9.246;2023-07-30T19:55:45;93740.50;;;13.06;96.27
71057;BME280;58380;48.312;9.246;2023-07-30T19:58:24;93802.94;;;13.48;100.00
71057;BME280;58380;48.312;9.246;2023-07-30T20:00:54;93797.16;;;13.41;100.00
71057;BME280;58380;48.312;9.246;2023-07-30T20:03:20;93799.00;;;13.25;98.51
71057;BME280;58380;48.312;9.246;2023-07-30T20:05:46;93785.78;;;13.20;100.00
71057;BME280;58380;48.312;9.246;2023-07-30T20:08:11;93758.81;;;12.87;98.03
71057;BME280;58380;48.312;9.246;2023-07-30T20:10:37;93788.50;;;12.94;98.52
71057;BME280;58380;48.312;9.246;2023-07-30T20:13:02;93808.88;;;13.04;100.00
71057;BME280;58380;48.312;9.246;2023-07-30T20:15:34;93798.53;;;12.97;100.00
71057;BME280;58380;48.312;9.246;2023-07-30T20:18:01;93797.50;;;12.93;100.00
71057;BME280;58380;48.312;9.246;2023-07-30T20:20:29;93768.38;;;12.72;100.00
71057;BME280;58380;48.312;9.246;2023-07-30T20:22:55;93803.59;;;12.88;100.00